world map with LELN marked

LELN - Airport

This information may not be accurate or current and is not valid for navigation or flight planning. No warranty of fitness for any purpose is made or implied.

flag of Castille and Leónflag of Spain

Donate via PayPal

Additional information is available on the NEW Great Circle Mapper

Location
City:  León, Castille and León, Spain
Name:Aeropuero de Bajio
ICAO / IATA:LELN / LEN

Details
Type:Airport (Aerodrome, Airfield)
Use:Military
Latitude:42°35'20"N (42.589000)
Longitude:5°39'20"W (-5.655555)
Datum:WGS 1984
Elevation:3006 ft (916 m)
Runways:2
Longest:6890 × 148 ft (2100 × 45 m)

Time
Timezone:UTC+1 (DST+4)
Local Time:

Weather
METAR:LELN  200000Z AUTO 33002KT 9999 -RA FEW027/// OVC035/// 07/07 Q1000
TAF:LELN  (expired)

Related Locations
Nearby:
Farthest:KBZ: 12400 mi / 19956 km
Kaikoura, CAN, NZ

Find:

   beyond  
but within

Other Information
Maps:
Sources:

  


 


Great Circle Mapper   Great Circle Mapper
Great Circle Mapper FAQ   Great Circle Mapper FAQ
  Karl's Home Page
KLS˛   KLS˛ Home
   GC on Facebook
Airlines of the World   Airlines of the World
Donate via PayPal


Copyright © 2004-2018, Karl L. Swartz. All rights reserved.
All trademarks mentioned herein belong to their respective owners.

Please see credits for attribution and copyright information.

Karl Swartz <karl@kls2.com>
  Powered by FreeBSD
Valid HTML 4.01!
Labeled with ICRA
hCard Microformat
Geo Microformat